Time;durP1;ratioP1;P1;durP2;ratioP2;P2;SDS_P1;SDS_P2;PMS_P1;PMS_P2;Temp;Humidity;BMP_temperature;BMP_pressure;BME280_temperature;BME280_humidity;BME280_pressure;Samples;Min_cycle;Max_cycle;Signal;HPM_P1;HPM_P2
2021/08/10 00:01:23;;;;;;;;;;;;;;;20.15;51.67;100347.47;10358094;28;19925;-55
2021/08/10 00:06:24;;;;;;;;;;;;;;;20.13;52.13;100350.34;10359777;28;20044;-55
2021/08/10 00:11:25;;;;;;;;;;;;;;;20.03;52.50;100338.13;10366574;28;20020;-55
2021/08/10 00:16:27;;;;;;;;;;;;;;;20.06;52.76;100340.47;10362030;28;19933;-55
2021/08/10 00:21:28;;;;;;;;;;;;;;;20.05;53.64;100342.31;10359082;28;19932;-55
2021/08/10 00:26:30;;;;;;;;;;;;;;;20.00;53.36;100343.91;10374385;28;19932;-55
2021/08/10 00:31:32;;;;;;;;;;;;;;;19.97;53.78;100350.50;10354270;28;19979;-55
2021/08/10 00:36:35;;;;;;;;;;;;;;;20.00;53.50;100352.84;10348228;28;19933;-55
2021/08/10 00:41:36;;;;;;;;;;;;;;;20.03;53.47;100351.63;10356513;28;19964;-56
2021/08/10 00:46:38;;;;;;;;;;;;;;;20.04;54.30;100340.66;10358001;28;19964;-55
2021/08/10 00:51:40;;;;;;;;;;;;;;;20.02;54.77;100342.66;10352232;28;20029;-55
2021/08/10 00:56:41;;;;;;;;;;;;;;;19.85;55.17;100331.19;10347920;28;20593;-55
2021/08/10 01:01:43;;;;;;;;;;;;;;;19.85;55.05;100335.75;10350827;28;20064;-55
2021/08/10 01:06:47;;;;;;;;;;;;;;;19.84;55.60;100334.06;10360187;28;20383;-55
2021/08/10 01:11:52;;;;;;;;;;;;;;;19.84;55.32;100337.59;10348351;28;20445;-55
2021/08/10 01:16:59;;;;;;;;;;;;;;;19.78;55.80;100336.47;10353394;28;19929;-55
2021/08/10 01:22:02;;;;;;;;;;;;;;;19.80;55.73;100328.19;10348472;28;19925;-55
2021/08/10 01:27:22;;;;;;;;;;;;;;;19.82;55.71;100326.16;10354361;28;20011;-55
2021/08/10 01:32:24;;;;;;;;;;;;;;;19.83;55.92;100329.69;10356655;28;20000;-55
2021/08/10 01:37:27;;;;;;;;;;;;;;;19.80;56.09;100321.94;10355794;28;19940;-55
2021/08/10 01:42:30;;;;;;;;;;;;;;;19.80;55.72;100322.78;10366228;28;19931;-56
2021/08/10 01:47:32;;;;;;;;;;;;;;;19.76;55.42;100305.25;10354260;28;19976;-55
2021/08/10 01:52:34;;;;;;;;;;;;;;;19.69;55.70;100302.41;10361130;28;19925;-55
2021/08/10 01:57:36;;;;;;;;;;;;;;;19.68;55.44;100303.47;10363092;28;20028;-55
2021/08/10 02:02:38;;;;;;;;;;;;;;;19.66;55.77;100291.97;10356835;28;19968;-55
2021/08/10 02:07:39;;;;;;;;;;;;;;;19.57;56.28;100298.47;10362566;28;19932;-55
2021/08/10 02:12:41;;;;;;;;;;;;;;;19.50;57.01;100300.22;10374724;28;19951;-55
2021/08/10 02:17:42;;;;;;;;;;;;;;;19.47;57.84;100301.44;10346172;28;19956;-55
2021/08/10 02:22:46;;;;;;;;;;;;;;;19.49;58.41;100298.56;10371759;28;20011;-56
2021/08/10 02:27:51;;;;;;;;;;;;;;;19.44;58.73;100301.78;10360654;28;19929;-56
2021/08/10 02:32:53;;;;;;;;;;;;;;;19.47;58.91;100300.56;10367222;28;20349;-55
2021/08/10 02:37:58;;;;;;;;;;;;;;;19.43;59.06;100308.22;10351068;28;19971;-55
2021/08/10 02:43:00;;;;;;;;;;;;;;;19.37;59.76;100315.16;10364620;28;19965;-56
2021/08/10 02:48:02;;;;;;;;;;;;;;;19.31;60.26;100307.78;10368443;28;19972;-56
2021/08/10 02:53:04;;;;;;;;;;;;;;;19.30;60.39;100305.28;10365812;28;19933;-56
2021/08/10 02:58:08;;;;;;;;;;;;;;;19.32;60.51;100301.38;10372914;28;20394;-56
2021/08/10 03:03:12;;;;;;;;;;;;;;;19.31;60.77;100312.34;10372267;28;20132;-56
2021/08/10 03:08:22;;;;;;;;;;;;;;;19.22;60.85;100307.00;10348582;28;19926;-56
2021/08/10 03:13:25;;;;;;;;;;;;;;;19.18;61.63;100292.19;10367098;28;20563;-56
2021/08/10 03:18:30;;;;;;;;;;;;;;;19.15;62.00;100294.41;10359785;28;19929;-56
2021/08/10 03:23:33;;;;;;;;;;;;;;;19.13;62.15;100299.16;10371741;28;20554;-56
2021/08/10 03:28:39;;;;;;;;;;;;;;;19.13;62.15;100301.84;10360840;28;19961;-56
2021/08/10 03:33:41;;;;;;;;;;;;;;;19.04;63.02;100304.56;10373036;28;20456;-56
2021/08/10 03:38:43;;;;;;;;;;;;;;;19.02;62.97;100314.72;10367449;28;20038;-56
2021/08/10 03:43:44;;;;;;;;;;;;;;;19.00;63.45;100305.94;10356345;28;20011;-56
2021/08/10 03:48:47;;;;;;;;;;;;;;;18.99;63.46;100308.81;10351732;28;19953;-56
2021/08/10 03:53:48;;;;;;;;;;;;;;;18.95;63.63;100302.13;10370660;28;20020;-56
2021/08/10 03:58:52;;;;;;;;;;;;;;;18.89;63.82;100314.44;10359125;28;19980;-56
2021/08/10 04:03:55;;;;;;;;;;;;;;;18.81;64.15;100318.00;10369201;28;19926;-56
2021/08/10 04:08:57;;;;;;;;;;;;;;;18.77;64.55;100313.13;10348036;28;19968;-56
2021/08/10 04:14:00;;;;;;;;;;;;;;;18.76;64.37;100319.53;10358016;28;19929;-56
2021/08/10 04:19:02;;;;;;;;;;;;;;;18.89;64.55;100333.31;10366173;28;19955;-56
2021/08/10 04:24:06;;;;;;;;;;;;;;;18.96;64.11;100331.63;10365273;28;19997;-56
2021/08/10 04:29:08;;;;;;;;;;;;;;;19.00;64.34;100343.72;10365176;28;19933;-60
2021/08/10 04:34:09;;;;;;;;;;;;;;;19.03;64.18;100340.66;10361816;28;20357;-57
2021/08/10 04:39:11;;;;;;;;;;;;;;;19.06;63.08;100336.78;10343750;28;19929;-56
2021/08/10 04:44:12;;;;;;;;;;;;;;;19.00;62.88;100341.00;10367044;28;19961;-56
2021/08/10 04:49:14;;;;;;;;;;;;;;;19.04;61.94;100328.03;10362134;28;19953;-56
2021/08/10 04:54:16;;;;;;;;;;;;;;;19.13;61.81;100334.22;10339095;28;20726;-56
2021/08/10 04:59:17;;;;;;;;;;;;;;;19.14;61.02;100325.94;10357799;28;20003;-56
2021/08/10 05:04:19;;;;;;;;;;;;;;;19.17;60.27;100328.28;10363354;28;20024;-57
2021/08/10 05:09:20;;;;;;;;;;;;;;;19.12;61.35;100314.47;10358778;28;19964;-56
2021/08/10 05:14:23;;;;;;;;;;;;;;;19.04;61.12;100306.44;10354733;28;20078;-56
2021/08/10 05:19:24;;;;;;;;;;;;;;;19.03;60.92;100315.53;10379893;28;19930;-56
2021/08/10 05:24:25;;;;;;;;;;;;;;;19.08;60.58;100335.59;10364979;28;20387;-56
2021/08/10 05:29:27;;;;;;;;;;;;;;;19.12;60.38;100309.09;10368499;28;20015;-56
2021/08/10 05:34:29;;;;;;;;;;;;;;;19.13;58.75;100334.22;10348678;28;20019;-58
2021/08/10 05:39:30;;;;;;;;;;;;;;;19.05;58.62;100325.16;10350650;28;20774;-56
2021/08/10 05:44:31;;;;;;;;;;;;;;;19.10;59.44;100302.22;10348688;28;19971;-56
2021/08/10 05:49:33;;;;;;;;;;;;;;;19.04;59.12;100301.88;10347498;28;20011;-56
2021/08/10 05:54:35;;;;;;;;;;;;;;;18.94;59.33;100306.66;10349522;28;19925;-55
2021/08/10 05:59:36;;;;;;;;;;;;;;;18.97;59.51;100324.34;10349855;28;19973;-56
2021/08/10 06:04:37;;;;;;;;;;;;;;;18.98;60.86;100350.31;10346397;28;19929;-60
2021/08/10 06:09:42;;;;;;;;;;;;;;;19.04;62.33;100347.75;10345881;28;20031;-59
2021/08/10 06:14:44;;;;;;;;;;;;;;;19.24;60.63;100331.09;10343081;28;20507;-57
2021/08/10 06:19:45;;;;;;;;;;;;;;;19.33;59.05;100294.13;10324475;28;19925;-56
2021/08/10 06:24:46;;;;;;;;;;;;;;;19.29;59.62;100320.63;10341716;28;20035;-55
2021/08/10 06:29:48;;;;;;;;;;;;;;;19.28;59.31;100347.78;10344529;28;20062;-56
2021/08/10 06:34:49;;;;;;;;;;;;;;;19.21;60.08;100350.34;10286220;28;1737838;-55
2021/08/10 06:39:50;;;;;;;;;;;;;;;19.11;58.64;100328.16;10343626;28;19930;-56
2021/08/10 06:44:52;;;;;;;;;;;;;;;19.16;58.42;100332.00;10350300;28;19960;-56
2021/08/10 06:49:54;;;;;;;;;;;;;;;19.14;59.32;100335.88;10351614;28;20024;-56
2021/08/10 06:54:55;;;;;;;;;;;;;;;19.23;57.87;100329.41;10328246;28;19995;-56
2021/08/10 06:59:57;;;;;;;;;;;;;;;19.41;57.75;100340.78;10329845;28;20490;-56
2021/08/10 07:04:58;;;;;;;;;;;;;;;19.63;57.49;100346.34;10334751;28;19929;-56
2021/08/10 07:09:59;;;;;;;;;;;;;;;19.68;57.44;100356.59;10350294;28;20020;-57
2021/08/10 07:15:01;;;;;;;;;;;;;;;19.82;57.81;100342.34;10348994;28;20438;-56
2021/08/10 07:20:02;;;;;;;;;;;;;;;19.93;57.04;100316.75;10345686;28;20426;-56
2021/08/10 07:25:04;;;;;;;;;;;;;;;19.98;57.78;100352.16;10346230;28;20016;-57
2021/08/10 07:30:06;;;;;;;;;;;;;;;20.20;58.08;100344.19;10348474;28;19929;-57
2021/08/10 07:35:08;;;;;;;;;;;;;;;20.22;57.75;100344.84;10349555;28;19992;-57
2021/08/10 07:40:10;;;;;;;;;;;;;;;20.05;58.51;100345.00;10329666;28;20353;-57
2021/08/10 07:45:12;;;;;;;;;;;;;;;20.15;58.55;100350.16;10351244;28;19999;-57
2021/08/10 07:50:13;;;;;;;;;;;;;;;20.17;59.00;100360.78;10345340;28;20799;-57
2021/08/10 07:55:14;;;;;;;;;;;;;;;20.51;58.29;100357.56;10345904;28;20016;-57
2021/08/10 08:00:16;;;;;;;;;;;;;;;20.62;56.73;100321.09;10349956;28;20355;-56
2021/08/10 08:05:17;;;;;;;;;;;;;;;20.79;56.80;100341.53;10345368;28;20038;-58
2021/08/10 08:10:19;;;;;;;;;;;;;;;21.15;55.98;100343.44;10348198;28;19933;-56
2021/08/10 08:15:20;;;;;;;;;;;;;;;21.20;54.73;100350.97;10346917;28;19953;-55
2021/08/10 08:20:22;;;;;;;;;;;;;;;21.37;54.44;100351.56;10347915;28;20328;-56
2021/08/10 08:25:23;;;;;;;;;;;;;;;21.57;53.23;100351.78;10342073;28;20398;-55
2021/08/10 08:30:25;;;;;;;;;;;;;;;21.76;52.59;100349.50;10348119;28;19925;-57
2021/08/10 08:35:26;;;;;;;;;;;;;;;22.01;50.93;100358.03;10345310;28;20055;-56
2021/08/10 08:40:27;;;;;;;;;;;;;;;22.05;51.46;100351.19;10347410;28;20016;-56
2021/08/10 08:45:29;;;;;;;;;;;;;;;22.33;50.99;100347.66;10346089;28;20012;-58
2021/08/10 08:50:33;;;;;;;;;;;;;;;22.35;49.25;100337.44;10336533;28;19930;-57
2021/08/10 08:55:35;;;;;;;;;;;;;;;22.45;50.12;100335.22;10328352;28;20126;-58
2021/08/10 09:00:36;;;;;;;;;;;;;;;;;;10346709;28;20056;-58
2021/08/10 09:05:40;;;;;;;;;;;;;;;22.66;48.77;100338.88;10341115;28;19930;-58
2021/08/10 09:10:51;;;;;;;;;;;;;;;22.82;48.22;100326.84;10349252;28;20382;-57
2021/08/10 09:15:52;;;;;;;;;;;;;;;22.99;48.54;100332.78;10343693;28;20474;-58
2021/08/10 09:21:03;;;;;;;;;;;;;;;23.44;47.22;100324.97;10347308;28;20349;-58
2021/08/10 09:26:04;;;;;;;;;;;;;;;23.87;45.84;100319.19;10346979;28;19929;-55
2021/08/10 09:31:24;;;;;;;;;;;;;;;24.30;45.30;100321.41;10329178;28;20330;-56
2021/08/10 09:36:26;;;;;;;;;;;;;;;24.79;44.20;100310.22;10332467;28;19941;-57
2021/08/10 09:41:28;;;;;;;;;;;;;;;24.85;44.32;100310.19;10343664;28;20004;-57
2021/08/10 09:46:29;;;;;;;;;;;;;;;25.04;42.82;100302.13;10329874;28;20025;-60
2021/08/10 09:51:31;;;;;;;;;;;;;;;24.76;43.11;100305.22;10340322;28;19929;-57
2021/08/10 09:56:39;;;;;;;;;;;;;;;24.96;43.13;100305.94;10342893;28;20034;-57
2021/08/10 10:01:41;;;;;;;;;;;;;;;25.24;43.49;100300.13;10339245;28;20372;-58
2021/08/10 10:06:43;;;;;;;;;;;;;;;25.96;42.28;100299.00;10351625;28;19941;-57
2021/08/10 10:11:46;;;;;;;;;;;;;;;25.99;41.42;100287.66;10339515;28;19929;-57
2021/08/10 10:16:52;;;;;;;;;;;;;;;26.20;41.18;100294.59;10332393;28;19936;-57
2021/08/10 10:21:54;;;;;;;;;;;;;;;26.37;41.10;100291.25;10353359;28;20004;-56
2021/08/10 10:27:01;;;;;;;;;;;;;;;26.76;40.80;100280.94;10347765;28;20024;-56
2021/08/10 10:32:02;;;;;;;;;;;;;;;25.73;41.73;100265.00;10352516;28;19926;-56
2021/08/10 10:37:05;;;;;;;;;;;;;;;26.70;40.00;100279.16;10350208;28;20016;-56
2021/08/10 10:42:08;;;;;;;;;;;;;;;27.29;38.09;100284.81;10335554;28;20024;-57
2021/08/10 10:47:25;;;;;;;;;;;;;;;27.46;39.15;100274.09;10348018;28;20426;-57
2021/08/10 10:52:29;;;;;;;;;;;;;;;27.01;38.92;100278.09;10349713;28;19929;-54
2021/08/10 10:57:30;;;;;;;;;;;;;;;26.54;40.62;100269.63;10349320;28;19937;-57
2021/08/10 11:02:33;;;;;;;;;;;;;;;26.71;39.81;100278.91;10343185;28;20047;-55
2021/08/10 11:07:37;;;;;;;;;;;;;;;26.58;41.16;100279.88;10330769;28;20464;-54
2021/08/10 11:12:43;;;;;;;;;;;;;;;26.87;40.52;100282.06;10346740;28;19972;-55
2021/08/10 11:18:03;;;;;;;;;;;;;;;26.72;41.44;100277.88;10348101;28;20407;-53
2021/08/10 11:23:24;;;;;;;;;;;;;;;26.98;40.17;100273.09;10343110;28;20173;-54
2021/08/10 11:28:33;;;;;;;;;;;;;;;27.97;39.00;100255.34;10344016;28;20459;-53
2021/08/10 11:33:39;;;;;;;;;;;;;;;28.26;36.38;100250.81;10339244;28;19926;-52
2021/08/10 11:38:47;;;;;;;;;;;;;;;28.46;36.39;100266.81;10345868;28;19969;-60
2021/08/10 11:43:49;;;;;;;;;;;;;;;28.81;35.76;100257.72;10345080;28;20027;-58
2021/08/10 11:48:52;;;;;;;;;;;;;;;28.70;35.22;100256.66;10329568;28;19933;-58
2021/08/10 11:53:55;;;;;;;;;;;;;;;28.55;35.39;100248.13;10345954;28;19965;-58
2021/08/10 11:58:57;;;;;;;;;;;;;;;28.19;36.08;100250.09;10345719;28;20022;-57
2021/08/10 12:04:08;;;;;;;;;;;;;;;28.43;36.21;100239.94;10339902;28;20016;-56
2021/08/10 12:09:14;;;;;;;;;;;;;;;28.87;35.61;100234.81;10340430;28;20036;-57
2021/08/10 12:14:15;;;;;;;;;;;;;;;29.21;35.03;100236.81;10327440;28;20435;-57
2021/08/10 12:19:16;;;;;;;;;;;;;;;28.85;34.72;100236.94;10340175;28;20030;-57
2021/08/10 12:24:38;;;;;;;;;;;;;;;29.26;34.88;100234.16;10341236;28;19937;-58
2021/08/10 12:29:43;;;;;;;;;;;;;;;29.13;34.32;100221.56;10342056;28;20011;-57
2021/08/10 12:34:44;;;;;;;;;;;;;;;29.74;33.91;100216.28;10339078;28;20382;-58
2021/08/10 12:39:46;;;;;;;;;;;;;;;30.29;33.13;100227.47;10345639;28;20012;-58
2021/08/10 12:44:50;;;;;;;;;;;;;;;29.77;31.94;100209.44;10341388;28;20094;-57
2021/08/10 12:49:52;;;;;;;;;;;;;;;29.42;33.44;100202.34;10344979;28;20020;-62
2021/08/10 12:54:54;;;;;;;;;;;;;;;29.14;34.06;100206.81;10345476;28;20386;-58
2021/08/10 12:59:56;;;;;;;;;;;;;;;28.81;34.03;100202.94;10325230;28;20012;-58
2021/08/10 13:04:58;;;;;;;;;;;;;;;28.63;34.49;100194.91;10336436;28;19933;-59
2021/08/10 13:10:00;;;;;;;;;;;;;;;28.59;34.70;100190.97;10324439;28;20639;-58
2021/08/10 13:15:06;;;;;;;;;;;;;;;28.25;35.21;100193.59;10337442;28;19940;-58
2021/08/10 13:20:16;;;;;;;;;;;;;;;27.63;36.35;100189.50;10337981;28;20671;-57
2021/08/10 13:25:24;;;;;;;;;;;;;;;27.33;37.40;100190.41;10337161;28;19976;-57
2021/08/10 13:30:27;;;;;;;;;;;;;;;27.58;36.63;100183.88;10342722;28;20471;-58
2021/08/10 13:35:28;;;;;;;;;;;;;;;27.70;36.91;100179.28;10343304;28;20017;-58
2021/08/10 13:40:30;;;;;;;;;;;;;;;28.12;35.66;100168.16;10349481;28;19925;-58
2021/08/10 13:45:39;;;;;;;;;;;;;;;28.35;35.80;100171.91;10346575;28;19969;-56
2021/08/10 13:50:49;;;;;;;;;;;;;;;28.26;34.70;100160.50;10348654;28;19933;-58
2021/08/10 13:55:50;;;;;;;;;;;;;;;28.12;35.49;100168.16;10339062;28;19991;-56
2021/08/10 14:00:52;;;;;;;;;;;;;;;28.35;35.11;100159.03;10348462;28;20016;-58
2021/08/10 14:05:54;;;;;;;;;;;;;;;28.29;35.29;100148.25;10327972;28;19933;-55
2021/08/10 14:10:55;;;;;;;;;;;;;;;28.19;35.85;100157.94;10346878;28;20022;-56
2021/08/10 14:15:57;;;;;;;;;;;;;;;27.51;36.63;100152.03;10352456;28;20024;-56
2021/08/10 14:20:58;;;;;;;;;;;;;;;27.19;37.37;100153.41;10334232;28;19967;-56
2021/08/10 14:26:00;;;;;;;;;;;;;;;26.88;37.84;100160.88;10330331;28;20383;-57
2021/08/10 14:31:02;;;;;;;;;;;;;;;27.02;37.80;100153.28;10349004;28;20602;-56
2021/08/10 14:36:04;;;;;;;;;;;;;;;26.91;38.46;100163.13;10343577;28;19933;-55
2021/08/10 14:41:05;;;;;;;;;;;;;;;26.62;37.95;100155.53;10348759;28;20008;-56
2021/08/10 14:46:07;;;;;;;;;;;;;;;26.33;38.30;100161.81;10353801;28;20015;-56
2021/08/10 14:51:08;;;;;;;;;;;;;;;26.46;38.49;100148.81;10346518;28;20513;-56
2021/08/10 14:56:09;;;;;;;;;;;;;;;26.37;38.45;100152.94;10352640;28;19976;-56
2021/08/10 15:01:11;;;;;;;;;;;;;;;26.52;38.86;100151.69;10349082;28;19940;-56
2021/08/10 15:06:13;;;;;;;;;;;;;;;26.36;38.75;100153.16;10335683;28;19933;-57
2021/08/10 15:11:15;;;;;;;;;;;;;;;26.16;38.94;100156.97;10352133;28;19925;-56
2021/08/10 15:16:16;;;;;;;;;;;;;;;25.99;39.52;100151.31;10353429;28;20399;-56
2021/08/10 15:21:17;;;;;;;;;;;;;;;25.85;40.56;100155.22;10349901;28;20483;-56
2021/08/10 15:26:19;;;;;;;;;;;;;;;25.64;41.92;100154.63;10345351;28;20023;-56
2021/08/10 15:31:20;;;;;;;;;;;;;;;25.65;42.31;100155.44;10341332;28;20395;-56
2021/08/10 15:36:22;;;;;;;;;;;;;;;25.65;42.07;100148.09;10349428;28;20020;-58
2021/08/10 15:41:23;;;;;;;;;;;;;;;25.92;42.11;100137.72;10353566;28;19941;-60
2021/08/10 15:46:25;;;;;;;;;;;;;;;26.05;41.51;100138.66;10350325;28;19925;-56
2021/08/10 15:51:26;;;;;;;;;;;;;;;25.94;41.33;100138.34;10346683;28;19940;-56
2021/08/10 15:56:28;;;;;;;;;;;;;;;25.90;41.57;100130.84;10351734;28;19960;-56
2021/08/10 16:01:29;;;;;;;;;;;;;;;25.58;42.12;100134.53;10321757;28;20691;-56
2021/08/10 16:06:31;;;;;;;;;;;;;;;25.49;42.54;100132.31;10339342;28;20063;-56
2021/08/10 16:11:32;;;;;;;;;;;;;;;25.45;42.82;100136.56;10344345;28;20028;-56
2021/08/10 16:16:33;;;;;;;;;;;;;;;25.41;42.87;100139.72;10343684;28;20004;-55
2021/08/10 16:21:35;;;;;;;;;;;;;;;25.34;43.37;100140.84;10347087;28;20402;-55
2021/08/10 16:26:37;;;;;;;;;;;;;;;25.34;44.88;100129.94;10343204;28;20024;-57
2021/08/10 16:31:38;;;;;;;;;;;;;;;25.39;45.27;100130.13;10341541;28;20518;-56
2021/08/10 16:36:39;;;;;;;;;;;;;;;25.32;45.34;100130.16;10346117;28;20012;-56
2021/08/10 16:41:41;;;;;;;;;;;;;;;25.09;45.48;100135.41;10342593;28;20012;-55
2021/08/10 16:46:42;;;;;;;;;;;;;;;24.88;45.03;100142.88;10345194;28;19929;-56
2021/08/10 16:51:43;;;;;;;;;;;;;;;24.84;45.19;100134.28;10350099;28;20018;-56
2021/08/10 16:56:45;;;;;;;;;;;;;;;24.81;45.62;100137.47;10331190;28;20461;-59
2021/08/10 17:01:46;;;;;;;;;;;;;;;24.55;45.51;100094.91;10345081;28;19972;-57
2021/08/10 17:06:48;;;;;;;;;;;;;;;24.63;45.82;100132.75;10349699;28;19925;-56
2021/08/10 17:11:49;;;;;;;;;;;;;;;24.60;45.85;100127.75;10344975;28;19965;-57
2021/08/10 17:16:50;;;;;;;;;;;;;;;24.68;45.93;100124.78;10329991;28;20071;-56
2021/08/10 17:21:52;;;;;;;;;;;;;;;24.55;46.29;100138.44;10359639;28;19987;-55
2021/08/10 17:26:53;;;;;;;;;;;;;;;24.66;46.21;100139.66;10340993;28;20010;-55
2021/08/10 17:31:55;;;;;;;;;;;;;;;24.66;46.44;100143.22;10341793;28;20055;-57
2021/08/10 17:36:56;;;;;;;;;;;;;;;24.54;46.65;100134.06;10352798;28;20578;-56
2021/08/10 17:41:57;;;;;;;;;;;;;;;24.41;47.17;100140.41;10352524;28;19968;-56
2021/08/10 17:46:59;;;;;;;;;;;;;;;24.27;47.38;100144.25;10355234;28;20357;-56
2021/08/10 17:52:00;;;;;;;;;;;;;;;24.21;47.67;100137.78;10349866;28;20021;-56
2021/08/10 17:57:01;;;;;;;;;;;;;;;24.16;47.75;100148.47;10337667;28;19968;-55
2021/08/10 18:02:03;;;;;;;;;;;;;;;24.17;48.04;100142.81;10345237;28;20016;-56
2021/08/10 18:07:04;;;;;;;;;;;;;;;24.05;48.54;100158.16;10347146;28;20292;-46
2021/08/10 18:12:06;;;;;;;;;;;;;;;24.02;48.56;100163.16;10345897;28;19940;-48
2021/08/10 18:17:07;;;;;;;;;;;;;;;23.93;49.36;100170.72;10351968;28;20076;-44
2021/08/10 18:22:09;;;;;;;;;;;;;;;23.72;49.58;100169.91;10349318;28;19964;-48
2021/08/10 18:27:10;;;;;;;;;;;;;;;23.70;48.74;100165.72;10332460;28;20024;-49
2021/08/10 18:32:11;;;;;;;;;;;;;;;23.68;48.88;100173.28;10352238;28;19939;-49
2021/08/10 18:37:13;;;;;;;;;;;;;;;23.64;48.14;100189.16;10354883;28;20015;-49
2021/08/10 18:42:24;;;;;;;;;;;;;;;23.62;48.10;100183.09;10339462;28;20036;-49
2021/08/10 18:47:26;;;;;;;;;;;;;;;23.58;48.89;100198.97;10348051;28;19969;-49
2021/08/10 18:52:27;;;;;;;;;;;;;;;23.33;48.88;100197.94;10350804;28;19969;-49
2021/08/10 18:57:28;;;;;;;;;;;;;;;23.21;48.99;100192.28;10352721;28;20439;-48
2021/08/10 19:02:30;;;;;;;;;;;;;;;23.17;49.71;100202.75;10357197;28;20012;-49
2021/08/10 19:07:34;;;;;;;;;;;;;;;23.21;49.28;100216.72;10357795;28;19936;-49
2021/08/10 19:12:36;;;;;;;;;;;;;;;23.28;49.58;100229.28;10349053;28;20111;-49
2021/08/10 19:17:38;;;;;;;;;;;;;;;23.23;49.80;100220.91;10353934;28;20028;-50
2021/08/10 19:22:40;;;;;;;;;;;;;;;23.12;49.64;100224.25;10356341;28;19929;-48
2021/08/10 19:27:41;;;;;;;;;;;;;;;23.04;50.41;100233.38;10355369;28;20511;-48
2021/08/10 19:32:42;;;;;;;;;;;;;;;23.00;50.32;100234.84;10349904;28;20359;-49
2021/08/10 19:37:44;;;;;;;;;;;;;;;22.93;50.70;100236.72;10349832;28;20027;-48
2021/08/10 19:42:46;;;;;;;;;;;;;;;22.87;50.60;100243.78;10350965;28;20453;-56
2021/08/10 19:47:47;;;;;;;;;;;;;;;22.82;50.77;100254.44;10349104;28;20431;-49
2021/08/10 19:52:49;;;;;;;;;;;;;;;22.78;51.19;100259.41;10326920;28;20370;-49
2021/08/10 19:57:51;;;;;;;;;;;;;;;22.72;51.08;100262.13;10351005;28;20023;-49
2021/08/10 20:02:53;;;;;;;;;;;;;;;22.68;51.56;100277.13;10349018;28;20310;-50
2021/08/10 20:07:55;;;;;;;;;;;;;;;22.67;51.66;100272.72;10349988;28;20314;-49
2021/08/10 20:12:56;;;;;;;;;;;;;;;22.63;52.14;100287.75;10329091;28;20315;-49
2021/08/10 20:17:57;;;;;;;;;;;;;;;22.58;52.07;100283.75;10336980;28;20257;-49
2021/08/10 20:22:59;;;;;;;;;;;;;;;22.53;52.39;100280.81;10350431;28;20406;-49
2021/08/10 20:28:00;;;;;;;;;;;;;;;22.26;52.83;100277.09;10356841;28;19925;-49
2021/08/10 20:33:03;;;;;;;;;;;;;;;22.31;52.96;100287.31;10353513;28;20421;-49
2021/08/10 20:38:04;;;;;;;;;;;;;;;22.25;52.99;100283.56;10357759;28;19934;-49
2021/08/10 20:43:05;;;;;;;;;;;;;;;22.12;53.71;100289.72;10348693;28;20028;-49
2021/08/10 20:48:07;;;;;;;;;;;;;;;22.05;53.69;100299.69;10346105;28;21067;-49
2021/08/10 20:53:08;;;;;;;;;;;;;;;21.86;54.39;100302.06;10329117;28;20265;-55
2021/08/10 20:58:09;;;;;;;;;;;;;;;21.65;55.23;100302.94;10350141;28;19965;-56
2021/08/10 21:03:11;;;;;;;;;;;;;;;21.50;55.63;100308.41;10365707;28;19925;-56
2021/08/10 21:08:12;;;;;;;;;;;;;;;21.60;55.64;100318.09;10364902;28;19929;-57
2021/08/10 21:13:14;;;;;;;;;;;;;;;21.43;56.09;100320.19;10358974;28;20575;-57
2021/08/10 21:18:15;;;;;;;;;;;;;;;21.38;56.25;100318.06;10365184;28;19964;-56
2021/08/10 21:23:17;;;;;;;;;;;;;;;21.45;56.36;100332.50;10358304;28;19940;-57
2021/08/10 21:28:18;;;;;;;;;;;;;;;21.32;56.55;100332.38;10373011;28;19961;-56
2021/08/10 21:33:19;;;;;;;;;;;;;;;21.22;57.09;100331.84;10348885;28;19934;-56
2021/08/10 21:38:23;;;;;;;;;;;;;;;21.31;56.87;100341.50;10358791;28;19960;-57
2021/08/10 21:43:24;;;;;;;;;;;;;;;21.25;57.29;100335.00;10356113;28;20022;-56
2021/08/10 21:48:25;;;;;;;;;;;;;;;21.34;57.30;100344.66;10363601;28;19965;-56
2021/08/10 21:53:27;;;;;;;;;;;;;;;21.29;57.53;100343.59;10362563;28;19968;-58
2021/08/10 21:58:28;;;;;;;;;;;;;;;21.23;57.95;100349.72;10365443;28;19983;-56
2021/08/10 22:03:29;;;;;;;;;;;;;;;21.14;57.94;100343.63;10374361;28;20010;-56
2021/08/10 22:08:31;;;;;;;;;;;;;;;21.09;58.35;100344.19;10376169;28;20650;-55
2021/08/10 22:13:32;;;;;;;;;;;;;;;21.06;58.83;100355.38;10350453;28;19929;-55
2021/08/10 22:18:34;;;;;;;;;;;;;;;21.06;58.96;100349.97;10376983;28;19987;-56
2021/08/10 22:23:35;;;;;;;;;;;;;;;21.06;58.95;100358.09;10383808;28;19953;-56
2021/08/10 22:28:37;;;;;;;;;;;;;;;21.00;59.41;100366.97;10362249;28;19976;-57
2021/08/10 22:33:38;;;;;;;;;;;;;;;20.93;59.33;100369.59;10372846;28;20384;-56
2021/08/10 22:38:39;;;;;;;;;;;;;;;20.87;60.19;100366.78;10363632;28;19937;-56
2021/08/10 22:43:42;;;;;;;;;;;;;;;20.84;60.29;100376.16;10367105;28;19925;-56
2021/08/10 22:48:43;;;;;;;;;;;;;;;20.70;60.44;100369.69;10366290;28;19994;-56
2021/08/10 22:53:45;;;;;;;;;;;;;;;20.77;60.59;100370.63;10368435;28;19953;-56
2021/08/10 22:58:46;;;;;;;;;;;;;;;20.78;60.65;100377.72;10369339;28;20004;-55
2021/08/10 23:03:47;;;;;;;;;;;;;;;20.76;60.83;100382.50;10365709;28;20280;-55
2021/08/10 23:08:49;;;;;;;;;;;;;;;20.68;61.25;100381.75;10361757;28;19929;-55
2021/08/10 23:13:50;;;;;;;;;;;;;;;20.65;61.50;100375.66;10359841;28;20006;-56
2021/08/10 23:18:51;;;;;;;;;;;;;;;20.63;61.71;100377.69;10365903;28;19948;-56
2021/08/10 23:23:53;;;;;;;;;;;;;;;20.62;61.97;100375.19;10360560;28;20452;-56
2021/08/10 23:28:54;;;;;;;;;;;;;;;20.58;62.01;100365.75;10361329;28;20040;-55
2021/08/10 23:33:55;;;;;;;;;;;;;;;20.54;62.42;100376.13;10371712;28;20002;-56
2021/08/10 23:38:58;;;;;;;;;;;;;;;20.47;62.61;100383.28;10366740;28;19964;-58
2021/08/10 23:43:59;;;;;;;;;;;;;;;20.40;62.77;100380.50;10364558;28;20345;-55
2021/08/10 23:49:00;;;;;;;;;;;;;;;20.34;63.35;100377.69;10365972;28;19929;-58
2021/08/10 23:54:02;;;;;;;;;;;;;;;20.28;63.45;100384.66;10360187;28;19969;-56
2021/08/10 23:59:03;;;;;;;;;;;;;;;20.20;63.79;100392.84;10359107;28;20637;-55
